sensor_id;sensor_type;location;lat;lon;timestamp;temperature;humidity
17489;DHT22;8861;52.644;4.734;2023-02-13T00:01:23;8.00;99.90
17489;DHT22;8861;52.644;4.734;2023-02-13T00:03:50;8.00;99.90
17489;DHT22;8861;52.644;4.734;2023-02-13T00:06:17;8.00;99.90
17489;DHT22;8861;52.644;4.734;2023-02-13T00:08:44;8.00;99.90
17489;DHT22;8861;52.644;4.734;2023-02-13T00:11:12;8.00;99.90
17489;DHT22;8861;52.644;4.734;2023-02-13T00:13:40;8.00;99.90
17489;DHT22;8861;52.644;4.734;2023-02-13T00:16:08;8.00;99.90
17489;DHT22;8861;52.644;4.734;2023-02-13T00:18:36;8.00;99.90
17489;DHT22;8861;52.644;4.734;2023-02-13T00:21:05;8.00;99.90
17489;DHT22;8861;52.644;4.734;2023-02-13T00:23:34;8.00;99.90
17489;DHT22;8861;52.644;4.734;2023-02-13T00:26:07;8.00;99.90
17489;DHT22;8861;52.644;4.734;2023-02-13T00:28:35;8.00;99.90
17489;DHT22;8861;52.644;4.734;2023-02-13T00:31:03;8.00;99.90
17489;DHT22;8861;52.644;4.734;2023-02-13T00:33:31;8.00;99.90
17489;DHT22;8861;52.644;4.734;2023-02-13T00:36:05;8.00;99.90
17489;DHT22;8861;52.644;4.734;2023-02-13T00:38:33;8.00;99.90
17489;DHT22;8861;52.644;4.734;2023-02-13T00:41:00;8.00;99.90
17489;DHT22;8861;52.644;4.734;2023-02-13T00:43:27;8.00;99.90
17489;DHT22;8861;52.644;4.734;2023-02-13T00:45:55;8.00;99.90
17489;DHT22;8861;52.644;4.734;2023-02-13T00:48:23;8.00;99.90
17489;DHT22;8861;52.644;4.734;2023-02-13T00:50:50;8.00;99.90
17489;DHT22;8861;52.644;4.734;2023-02-13T00:53:17;8.00;99.90
17489;DHT22;8861;52.644;4.734;2023-02-13T00:55:44;7.90;99.90
17489;DHT22;8861;52.644;4.734;2023-02-13T00:58:11;7.90;99.90
17489;DHT22;8861;52.644;4.734;2023-02-13T01:00:38;7.90;99.90
17489;DHT22;8861;52.644;4.734;2023-02-13T01:03:06;7.90;99.90
17489;DHT22;8861;52.644;4.734;2023-02-13T01:05:34;7.90;99.90
17489;DHT22;8861;52.644;4.734;2023-02-13T01:08:01;7.90;99.90
17489;DHT22;8861;52.644;4.734;2023-02-13T01:10:28;7.90;99.90
17489;DHT22;8861;52.644;4.734;2023-02-13T01:12:55;7.90;99.90
17489;DHT22;8861;52.644;4.734;2023-02-13T01:15:22;7.90;99.90
17489;DHT22;8861;52.644;4.734;2023-02-13T01:17:51;7.90;99.90
17489;DHT22;8861;52.644;4.734;2023-02-13T01:20:19;7.90;99.90
17489;DHT22;8861;52.644;4.734;2023-02-13T01:22:46;7.90;99.90
17489;DHT22;8861;52.644;4.734;2023-02-13T01:25:13;7.90;99.90
17489;DHT22;8861;52.644;4.734;2023-02-13T01:27:40;7.90;99.90
17489;DHT22;8861;52.644;4.734;2023-02-13T01:30:10;7.90;99.90
17489;DHT22;8861;52.644;4.734;2023-02-13T01:32:39;7.90;99.90
17489;DHT22;8861;52.644;4.734;2023-02-13T01:35:07;7.90;99.90
17489;DHT22;8861;52.644;4.734;2023-02-13T01:37:35;7.90;99.90
17489;DHT22;8861;52.644;4.734;2023-02-13T01:40:04;7.90;99.90
17489;DHT22;8861;52.644;4.734;2023-02-13T01:42:33;7.90;99.90
17489;DHT22;8861;52.644;4.734;2023-02-13T01:45:01;7.90;99.90
17489;DHT22;8861;52.644;4.734;2023-02-13T01:47:33;7.90;99.90
17489;DHT22;8861;52.644;4.734;2023-02-13T01:50:07;7.90;99.90
17489;DHT22;8861;52.644;4.734;2023-02-13T01:52:40;7.90;99.90
17489;DHT22;8861;52.644;4.734;2023-02-13T01:55:08;7.90;99.90
17489;DHT22;8861;52.644;4.734;2023-02-13T01:57:37;7.90;99.90
17489;DHT22;8861;52.644;4.734;2023-02-13T02:00:08;7.80;99.90
17489;DHT22;8861;52.644;4.734;2023-02-13T02:02:37;7.90;99.90
17489;DHT22;8861;52.644;4.734;2023-02-13T02:05:06;7.80;99.90
17489;DHT22;8861;52.644;4.734;2023-02-13T02:07:36;7.80;99.90
17489;DHT22;8861;52.644;4.734;2023-02-13T02:10:08;7.80;99.90
17489;DHT22;8861;52.644;4.734;2023-02-13T02:12:41;7.80;99.90
17489;DHT22;8861;52.644;4.734;2023-02-13T02:15:09;7.80;99.90
17489;DHT22;8861;52.644;4.734;2023-02-13T02:17:36;7.80;99.90
17489;DHT22;8861;52.644;4.734;2023-02-13T02:20:13;7.80;99.90
17489;DHT22;8861;52.644;4.734;2023-02-13T02:23:15;7.80;99.90
17489;DHT22;8861;52.644;4.734;2023-02-13T02:25:57;7.80;99.90
17489;DHT22;8861;52.644;4.734;2023-02-13T02:29:06;7.80;99.90
17489;DHT22;8861;52.644;4.734;2023-02-13T02:34:46;7.80;99.90
17489;DHT22;8861;52.644;4.734;2023-02-13T02:37:27;7.80;99.90
17489;DHT22;8861;52.644;4.734;2023-02-13T02:40:07;7.80;99.90
17489;DHT22;8861;52.644;4.734;2023-02-13T02:42:42;7.80;99.90
17489;DHT22;8861;52.644;4.734;2023-02-13T02:45:16;7.80;99.90
17489;DHT22;8861;52.644;4.734;2023-02-13T02:47:53;7.80;99.90
17489;DHT22;8861;52.644;4.734;2023-02-13T02:50:42;7.80;99.90
17489;DHT22;8861;52.644;4.734;2023-02-13T02:53:22;7.80;99.90
17489;DHT22;8861;52.644;4.734;2023-02-13T02:55:53;7.80;99.90
17489;DHT22;8861;52.644;4.734;2023-02-13T02:58:27;7.80;99.90
17489;DHT22;8861;52.644;4.734;2023-02-13T03:01:17;7.80;99.90
17489;DHT22;8861;52.644;4.734;2023-02-13T03:04:04;7.80;99.90
17489;DHT22;8861;52.644;4.734;2023-02-13T03:06:52;7.80;99.90
17489;DHT22;8861;52.644;4.734;2023-02-13T03:09:25;7.80;99.90
17489;DHT22;8861;52.644;4.734;2023-02-13T03:12:16;7.80;99.90
17489;DHT22;8861;52.644;4.734;2023-02-13T03:15:02;7.80;99.90
17489;DHT22;8861;52.644;4.734;2023-02-13T03:17:29;7.80;99.90
17489;DHT22;8861;52.644;4.734;2023-02-13T03:20:39;7.80;99.90
17489;DHT22;8861;52.644;4.734;2023-02-13T03:23:34;7.80;99.90
17489;DHT22;8861;52.644;4.734;2023-02-13T03:26:15;7.80;99.90
17489;DHT22;8861;52.644;4.734;2023-02-13T03:28:48;7.80;99.90
17489;DHT22;8861;52.644;4.734;2023-02-13T03:31:38;7.80;99.90
17489;DHT22;8861;52.644;4.734;2023-02-13T03:34:11;7.90;99.90
17489;DHT22;8861;52.644;4.734;2023-02-13T03:36:46;7.90;99.90
17489;DHT22;8861;52.644;4.734;2023-02-13T03:39:39;7.90;99.90
17489;DHT22;8861;52.644;4.734;2023-02-13T03:42:12;7.90;99.90
17489;DHT22;8861;52.644;4.734;2023-02-13T03:44:44;7.90;99.90
17489;DHT22;8861;52.644;4.734;2023-02-13T03:47:13;7.90;99.90
17489;DHT22;8861;52.644;4.734;2023-02-13T03:49:43;7.90;99.90
17489;DHT22;8861;52.644;4.734;2023-02-13T03:52:31;7.90;99.90
17489;DHT22;8861;52.644;4.734;2023-02-13T03:55:06;7.90;99.90
17489;DHT22;8861;52.644;4.734;2023-02-13T03:57:55;7.90;99.90
17489;DHT22;8861;52.644;4.734;2023-02-13T04:00:43;7.90;99.90
17489;DHT22;8861;52.644;4.734;2023-02-13T04:03:14;7.90;99.90
17489;DHT22;8861;52.644;4.734;2023-02-13T04:05:44;7.90;99.90
17489;DHT22;8861;52.644;4.734;2023-02-13T04:08:14;7.90;99.90
17489;DHT22;8861;52.644;4.734;2023-02-13T04:10:46;7.90;99.90
17489;DHT22;8861;52.644;4.734;2023-02-13T04:13:17;7.90;99.90
17489;DHT22;8861;52.644;4.734;2023-02-13T04:15:50;7.90;99.90
17489;DHT22;8861;52.644;4.734;2023-02-13T04:18:21;7.90;99.90
17489;DHT22;8861;52.644;4.734;2023-02-13T04:20:49;7.90;99.90
17489;DHT22;8861;52.644;4.734;2023-02-13T04:23:17;7.90;99.90
17489;DHT22;8861;52.644;4.734;2023-02-13T04:25:47;7.90;99.90
17489;DHT22;8861;52.644;4.734;2023-02-13T04:28:15;7.90;99.90
17489;DHT22;8861;52.644;4.734;2023-02-13T04:30:42;7.90;99.90
17489;DHT22;8861;52.644;4.734;2023-02-13T04:33:09;7.90;99.90
17489;DHT22;8861;52.644;4.734;2023-02-13T04:35:36;7.90;99.90
17489;DHT22;8861;52.644;4.734;2023-02-13T04:38:03;7.80;99.90
17489;DHT22;8861;52.644;4.734;2023-02-13T04:40:32;7.80;99.90
17489;DHT22;8861;52.644;4.734;2023-02-13T04:42:59;7.80;99.90
17489;DHT22;8861;52.644;4.734;2023-02-13T04:45:26;7.80;99.90
17489;DHT22;8861;52.644;4.734;2023-02-13T04:47:54;7.80;99.90
17489;DHT22;8861;52.644;4.734;2023-02-13T04:50:22;7.80;99.90
17489;DHT22;8861;52.644;4.734;2023-02-13T04:52:52;7.80;99.90
17489;DHT22;8861;52.644;4.734;2023-02-13T04:55:19;7.80;99.90
17489;DHT22;8861;52.644;4.734;2023-02-13T04:57:47;7.80;99.90
17489;DHT22;8861;52.644;4.734;2023-02-13T05:00:15;7.70;99.90
17489;DHT22;8861;52.644;4.734;2023-02-13T05:02:42;7.70;99.90
17489;DHT22;8861;52.644;4.734;2023-02-13T05:05:08;7.70;99.90
17489;DHT22;8861;52.644;4.734;2023-02-13T05:07:35;7.70;99.90
17489;DHT22;8861;52.644;4.734;2023-02-13T05:10:03;7.70;99.90
17489;DHT22;8861;52.644;4.734;2023-02-13T05:12:30;7.80;99.90
17489;DHT22;8861;52.644;4.734;2023-02-13T05:14:59;7.80;99.90
17489;DHT22;8861;52.644;4.734;2023-02-13T05:17:26;7.70;99.90
17489;DHT22;8861;52.644;4.734;2023-02-13T05:19:52;7.70;99.90
17489;DHT22;8861;52.644;4.734;2023-02-13T05:22:19;7.70;99.90
17489;DHT22;8861;52.644;4.734;2023-02-13T05:25:04;7.70;99.90
17489;DHT22;8861;52.644;4.734;2023-02-13T05:27:31;7.70;99.90
17489;DHT22;8861;52.644;4.734;2023-02-13T05:29:59;7.70;99.90
17489;DHT22;8861;52.644;4.734;2023-02-13T05:32:25;7.70;99.90
17489;DHT22;8861;52.644;4.734;2023-02-13T05:34:52;7.70;99.90
17489;DHT22;8861;52.644;4.734;2023-02-13T05:37:19;7.70;99.90
17489;DHT22;8861;52.644;4.734;2023-02-13T05:39:46;7.60;99.90
17489;DHT22;8861;52.644;4.734;2023-02-13T05:42:13;7.70;99.90
17489;DHT22;8861;52.644;4.734;2023-02-13T05:44:39;7.70;99.90
17489;DHT22;8861;52.644;4.734;2023-02-13T05:47:08;7.60;99.90
17489;DHT22;8861;52.644;4.734;2023-02-13T05:49:35;7.70;99.90
17489;DHT22;8861;52.644;4.734;2023-02-13T05:52:02;7.60;99.90
17489;DHT22;8861;52.644;4.734;2023-02-13T05:54:29;7.60;99.90
17489;DHT22;8861;52.644;4.734;2023-02-13T05:56:56;7.70;99.90
17489;DHT22;8861;52.644;4.734;2023-02-13T05:59:22;7.70;99.90
17489;DHT22;8861;52.644;4.734;2023-02-13T06:01:49;7.70;99.90
17489;DHT22;8861;52.644;4.734;2023-02-13T06:04:18;7.60;99.90
17489;DHT22;8861;52.644;4.734;2023-02-13T06:06:45;7.60;99.90
17489;DHT22;8861;52.644;4.734;2023-02-13T06:09:12;7.60;99.90
17489;DHT22;8861;52.644;4.734;2023-02-13T06:11:39;7.60;99.90
17489;DHT22;8861;52.644;4.734;2023-02-13T06:14:06;7.60;99.90
17489;DHT22;8861;52.644;4.734;2023-02-13T06:16:33;7.60;99.90
17489;DHT22;8861;52.644;4.734;2023-02-13T06:19:00;7.60;99.90
17489;DHT22;8861;52.644;4.734;2023-02-13T06:21:29;7.60;99.90
17489;DHT22;8861;52.644;4.734;2023-02-13T06:23:57;7.70;99.90
17489;DHT22;8861;52.644;4.734;2023-02-13T06:26:24;7.60;99.90
17489;DHT22;8861;52.644;4.734;2023-02-13T06:28:51;7.60;99.90
17489;DHT22;8861;52.644;4.734;2023-02-13T06:31:18;7.70;99.90
17489;DHT22;8861;52.644;4.734;2023-02-13T06:33:45;7.70;99.90
17489;DHT22;8861;52.644;4.734;2023-02-13T06:36:12;7.60;99.90
17489;DHT22;8861;52.644;4.734;2023-02-13T06:38:40;7.70;99.90
17489;DHT22;8861;52.644;4.734;2023-02-13T06:41:07;7.70;99.90
17489;DHT22;8861;52.644;4.734;2023-02-13T06:43:35;7.70;99.90
17489;DHT22;8861;52.644;4.734;2023-02-13T06:46:04;7.70;99.90
17489;DHT22;8861;52.644;4.734;2023-02-13T06:48:31;7.70;99.90
17489;DHT22;8861;52.644;4.734;2023-02-13T06:50:58;7.70;99.90
17489;DHT22;8861;52.644;4.734;2023-02-13T06:53:26;7.70;99.90
17489;DHT22;8861;52.644;4.734;2023-02-13T06:55:55;7.70;99.90
17489;DHT22;8861;52.644;4.734;2023-02-13T06:58:24;7.70;99.90
17489;DHT22;8861;52.644;4.734;2023-02-13T07:00:52;7.70;99.90
17489;DHT22;8861;52.644;4.734;2023-02-13T07:03:19;7.70;99.90
17489;DHT22;8861;52.644;4.734;2023-02-13T07:05:46;7.70;99.90
17489;DHT22;8861;52.644;4.734;2023-02-13T07:08:16;7.70;99.90
17489;DHT22;8861;52.644;4.734;2023-02-13T07:10:44;7.70;99.90
17489;DHT22;8861;52.644;4.734;2023-02-13T07:13:12;7.70;99.90
17489;DHT22;8861;52.644;4.734;2023-02-13T07:15:39;7.70;99.90
17489;DHT22;8861;52.644;4.734;2023-02-13T07:18:07;7.70;99.90
17489;DHT22;8861;52.644;4.734;2023-02-13T07:20:34;7.70;99.90
17489;DHT22;8861;52.644;4.734;2023-02-13T07:23:02;7.70;99.90
17489;DHT22;8861;52.644;4.734;2023-02-13T07:25:29;7.70;99.90
17489;DHT22;8861;52.644;4.734;2023-02-13T07:28:00;7.70;99.90
17489;DHT22;8861;52.644;4.734;2023-02-13T07:30:29;7.70;99.90
17489;DHT22;8861;52.644;4.734;2023-02-13T07:32:58;7.80;99.90
17489;DHT22;8861;52.644;4.734;2023-02-13T07:35:25;7.80;99.90
17489;DHT22;8861;52.644;4.734;2023-02-13T07:37:52;7.80;99.90
17489;DHT22;8861;52.644;4.734;2023-02-13T07:40:19;7.80;99.90
17489;DHT22;8861;52.644;4.734;2023-02-13T07:42:46;7.80;99.90
17489;DHT22;8861;52.644;4.734;2023-02-13T07:45:13;7.90;99.90
17489;DHT22;8861;52.644;4.734;2023-02-13T07:47:42;7.90;99.90
17489;DHT22;8861;52.644;4.734;2023-02-13T07:50:09;7.90;99.90
17489;DHT22;8861;52.644;4.734;2023-02-13T07:52:37;7.90;99.90
17489;DHT22;8861;52.644;4.734;2023-02-13T07:55:04;7.90;99.90
17489;DHT22;8861;52.644;4.734;2023-02-13T07:57:32;8.00;99.90
17489;DHT22;8861;52.644;4.734;2023-02-13T07:59:58;8.00;99.90
17489;DHT22;8861;52.644;4.734;2023-02-13T08:02:25;8.00;99.90
17489;DHT22;8861;52.644;4.734;2023-02-13T08:04:54;8.00;99.90
17489;DHT22;8861;52.644;4.734;2023-02-13T08:07:20;8.10;99.90
17489;DHT22;8861;52.644;4.734;2023-02-13T08:09:47;8.10;99.90
17489;DHT22;8861;52.644;4.734;2023-02-13T08:12:34;8.10;99.90
17489;DHT22;8861;52.644;4.734;2023-02-13T08:15:01;8.20;99.90
17489;DHT22;8861;52.644;4.734;2023-02-13T08:17:29;8.20;99.90
17489;DHT22;8861;52.644;4.734;2023-02-13T08:19:57;8.20;99.90
17489;DHT22;8861;52.644;4.734;2023-02-13T08:22:24;8.20;99.90
17489;DHT22;8861;52.644;4.734;2023-02-13T08:24:51;8.20;99.90
17489;DHT22;8861;52.644;4.734;2023-02-13T08:27:18;8.30;99.90
17489;DHT22;8861;52.644;4.734;2023-02-13T08:29:45;8.30;99.90
17489;DHT22;8861;52.644;4.734;2023-02-13T08:32:12;8.30;99.90
17489;DHT22;8861;52.644;4.734;2023-02-13T08:34:39;8.30;99.90
17489;DHT22;8861;52.644;4.734;2023-02-13T08:37:07;8.30;99.90
17489;DHT22;8861;52.644;4.734;2023-02-13T08:39:34;8.50;99.90
17489;DHT22;8861;52.644;4.734;2023-02-13T08:42:01;8.50;99.90
17489;DHT22;8861;52.644;4.734;2023-02-13T08:44:28;8.50;99.90
17489;DHT22;8861;52.644;4.734;2023-02-13T08:46:55;8.50;99.90
17489;DHT22;8861;52.644;4.734;2023-02-13T08:49:22;8.50;99.90
17489;DHT22;8861;52.644;4.734;2023-02-13T08:51:49;8.50;99.90
17489;DHT22;8861;52.644;4.734;2023-02-13T08:54:18;8.60;99.90
17489;DHT22;8861;52.644;4.734;2023-02-13T08:56:44;8.60;99.90
17489;DHT22;8861;52.644;4.734;2023-02-13T08:59:11;8.60;99.90
17489;DHT22;8861;52.644;4.734;2023-02-13T09:01:39;8.60;99.90
17489;DHT22;8861;52.644;4.734;2023-02-13T09:04:06;8.70;99.90
17489;DHT22;8861;52.644;4.734;2023-02-13T09:06:33;8.80;99.90
17489;DHT22;8861;52.644;4.734;2023-02-13T09:09:00;8.90;99.90
17489;DHT22;8861;52.644;4.734;2023-02-13T09:11:29;8.90;99.90
17489;DHT22;8861;52.644;4.734;2023-02-13T09:13:56;9.00;99.90
17489;DHT22;8861;52.644;4.734;2023-02-13T09:16:23;9.10;99.90
17489;DHT22;8861;52.644;4.734;2023-02-13T09:18:50;9.10;99.90
17489;DHT22;8861;52.644;4.734;2023-02-13T09:21:20;9.10;99.90
17489;DHT22;8861;52.644;4.734;2023-02-13T09:23:48;9.20;99.90
17489;DHT22;8861;52.644;4.734;2023-02-13T09:26:16;9.20;99.90
17489;DHT22;8861;52.644;4.734;2023-02-13T09:28:45;9.30;99.90
17489;DHT22;8861;52.644;4.734;2023-02-13T09:31:14;9.30;99.90
17489;DHT22;8861;52.644;4.734;2023-02-13T09:33:42;9.40;99.90
17489;DHT22;8861;52.644;4.734;2023-02-13T09:36:11;9.40;99.90
17489;DHT22;8861;52.644;4.734;2023-02-13T09:38:39;9.50;99.90
17489;DHT22;8861;52.644;4.734;2023-02-13T09:41:12;9.50;99.90
17489;DHT22;8861;52.644;4.734;2023-02-13T09:43:43;9.60;99.90
17489;DHT22;8861;52.644;4.734;2023-02-13T09:46:17;9.60;99.90
17489;DHT22;8861;52.644;4.734;2023-02-13T09:48:48;9.60;99.90
17489;DHT22;8861;52.644;4.734;2023-02-13T09:51:19;9.60;99.90
17489;DHT22;8861;52.644;4.734;2023-02-13T09:53:58;9.70;99.90
17489;DHT22;8861;52.644;4.734;2023-02-13T09:56:36;9.70;99.90
17489;DHT22;8861;52.644;4.734;2023-02-13T09:59:11;9.80;99.90
17489;DHT22;8861;52.644;4.734;2023-02-13T10:01:44;9.80;99.90
17489;DHT22;8861;52.644;4.734;2023-02-13T10:04:24;9.90;99.90
17489;DHT22;8861;52.644;4.734;2023-02-13T10:06:58;10.00;99.90
17489;DHT22;8861;52.644;4.734;2023-02-13T10:09:31;10.00;99.90
17489;DHT22;8861;52.644;4.734;2023-02-13T10:12:14;10.10;99.90
17489;DHT22;8861;52.644;4.734;2023-02-13T10:14:49;10.10;99.90
17489;DHT22;8861;52.644;4.734;2023-02-13T10:17:27;10.10;99.90
17489;DHT22;8861;52.644;4.734;2023-02-13T10:19:58;10.20;99.90
17489;DHT22;8861;52.644;4.734;2023-02-13T10:22:31;10.20;99.90
17489;DHT22;8861;52.644;4.734;2023-02-13T10:25:03;10.30;99.90
17489;DHT22;8861;52.644;4.734;2023-02-13T10:27:34;10.30;99.90
17489;DHT22;8861;52.644;4.734;2023-02-13T10:30:04;10.40;99.90
17489;DHT22;8861;52.644;4.734;2023-02-13T10:32:46;10.40;99.90
17489;DHT22;8861;52.644;4.734;2023-02-13T10:35:20;10.50;99.90
17489;DHT22;8861;52.644;4.734;2023-02-13T10:37:49;10.60;99.90
17489;DHT22;8861;52.644;4.734;2023-02-13T10:40:18;10.60;99.90
17489;DHT22;8861;52.644;4.734;2023-02-13T10:42:48;10.70;99.90
17489;DHT22;8861;52.644;4.734;2023-02-13T10:45:40;10.70;99.90
17489;DHT22;8861;52.644;4.734;2023-02-13T10:48:21;10.80;99.90
17489;DHT22;8861;52.644;4.734;2023-02-13T10:50:58;10.80;99.90
17489;DHT22;8861;52.644;4.734;2023-02-13T10:53:40;10.90;99.90
17489;DHT22;8861;52.644;4.734;2023-02-13T10:56:24;10.90;99.90
17489;DHT22;8861;52.644;4.734;2023-02-13T10:59:07;10.90;99.90
17489;DHT22;8861;52.644;4.734;2023-02-13T11:01:41;10.90;99.90
17489;DHT22;8861;52.644;4.734;2023-02-13T11:04:16;11.00;99.90
17489;DHT22;8861;52.644;4.734;2023-02-13T11:06:53;11.10;99.90
17489;DHT22;8861;52.644;4.734;2023-02-13T11:09:20;11.20;99.90
17489;DHT22;8861;52.644;4.734;2023-02-13T11:11:47;11.30;99.90
17489;DHT22;8861;52.644;4.734;2023-02-13T11:14:17;11.30;99.90
17489;DHT22;8861;52.644;4.734;2023-02-13T11:16:50;11.30;99.90
17489;DHT22;8861;52.644;4.734;2023-02-13T11:19:23;11.40;99.90
17489;DHT22;8861;52.644;4.734;2023-02-13T11:21:54;11.50;99.90
17489;DHT22;8861;52.644;4.734;2023-02-13T11:24:22;11.50;99.90
17489;DHT22;8861;52.644;4.734;2023-02-13T11:26:52;11.70;99.90
17489;DHT22;8861;52.644;4.734;2023-02-13T11:29:24;11.70;99.90
17489;DHT22;8861;52.644;4.734;2023-02-13T11:32:04;11.80;99.90
17489;DHT22;8861;52.644;4.734;2023-02-13T11:34:33;12.00;99.90
17489;DHT22;8861;52.644;4.734;2023-02-13T11:37:25;11.90;99.90
17489;DHT22;8861;52.644;4.734;2023-02-13T11:39:54;11.90;99.90
17489;DHT22;8861;52.644;4.734;2023-02-13T11:42:26;12.00;99.90
17489;DHT22;8861;52.644;4.734;2023-02-13T11:44:57;12.00;99.90
17489;DHT22;8861;52.644;4.734;2023-02-13T11:47:34;12.10;99.90
17489;DHT22;8861;52.644;4.734;2023-02-13T11:50:05;12.10;99.90
17489;DHT22;8861;52.644;4.734;2023-02-13T11:52:34;12.10;99.90
17489;DHT22;8861;52.644;4.734;2023-02-13T11:55:03;12.10;99.90
17489;DHT22;8861;52.644;4.734;2023-02-13T11:57:32;12.00;99.90
17489;DHT22;8861;52.644;4.734;2023-02-13T12:00:01;11.90;99.90
17489;DHT22;8861;52.644;4.734;2023-02-13T12:02:48;11.80;99.90
17489;DHT22;8861;52.644;4.734;2023-02-13T12:05:19;11.70;99.90
17489;DHT22;8861;52.644;4.734;2023-02-13T12:07:47;11.80;99.90
17489;DHT22;8861;52.644;4.734;2023-02-13T12:10:20;11.90;99.90
17489;DHT22;8861;52.644;4.734;2023-02-13T12:12:53;12.00;99.90
17489;DHT22;8861;52.644;4.734;2023-02-13T12:15:24;12.00;99.90
17489;DHT22;8861;52.644;4.734;2023-02-13T12:18:05;12.00;99.90
17489;DHT22;8861;52.644;4.734;2023-02-13T12:20:56;12.00;99.90
17489;DHT22;8861;52.644;4.734;2023-02-13T12:23:31;12.00;99.90
17489;DHT22;8861;52.644;4.734;2023-02-13T12:26:11;12.00;99.90
17489;DHT22;8861;52.644;4.734;2023-02-13T12:28:52;12.10;99.90
17489;DHT22;8861;52.644;4.734;2023-02-13T12:34:36;12.10;99.90
17489;DHT22;8861;52.644;4.734;2023-02-13T12:37:18;12.00;99.90
17489;DHT22;8861;52.644;4.734;2023-02-13T12:40:01;12.00;99.90
17489;DHT22;8861;52.644;4.734;2023-02-13T12:42:42;12.00;99.90
17489;DHT22;8861;52.644;4.734;2023-02-13T12:45:23;11.90;99.90
17489;DHT22;8861;52.644;4.734;2023-02-13T12:48:17;12.00;99.90
17489;DHT22;8861;52.644;4.734;2023-02-13T12:50:56;12.00;99.90
17489;DHT22;8861;52.644;4.734;2023-02-13T12:53:42;12.00;99.90
17489;DHT22;8861;52.644;4.734;2023-02-13T12:56:27;12.00;99.90
17489;DHT22;8861;52.644;4.734;2023-02-13T12:59:06;12.00;99.90
17489;DHT22;8861;52.644;4.734;2023-02-13T13:02:04;12.10;99.90
17489;DHT22;8861;52.644;4.734;2023-02-13T13:04:46;12.10;99.90
17489;DHT22;8861;52.644;4.734;2023-02-13T13:07:27;12.10;99.90
17489;DHT22;8861;52.644;4.734;2023-02-13T13:10:20;12.20;99.90
17489;DHT22;8861;52.644;4.734;2023-02-13T13:12:56;12.20;99.90
17489;DHT22;8861;52.644;4.734;2023-02-13T13:15:31;12.20;99.90
17489;DHT22;8861;52.644;4.734;2023-02-13T13:18:18;12.20;99.90
17489;DHT22;8861;52.644;4.734;2023-02-13T13:21:05;12.30;99.90
17489;DHT22;8861;52.644;4.734;2023-02-13T13:23:37;12.30;99.90
17489;DHT22;8861;52.644;4.734;2023-02-13T13:26:15;12.40;99.90
17489;DHT22;8861;52.644;4.734;2023-02-13T13:28:49;12.40;99.90
17489;DHT22;8861;52.644;4.734;2023-02-13T13:31:18;12.40;99.90
17489;DHT22;8861;52.644;4.734;2023-02-13T13:33:47;12.40;99.90
17489;DHT22;8861;52.644;4.734;2023-02-13T13:36:22;12.40;99.90
17489;DHT22;8861;52.644;4.734;2023-02-13T13:38:58;12.50;99.90
17489;DHT22;8861;52.644;4.734;2023-02-13T13:41:31;12.60;99.90
17489;DHT22;8861;52.644;4.734;2023-02-13T13:44:22;12.70;99.90
17489;DHT22;8861;52.644;4.734;2023-02-13T13:46:57;12.70;99.90
17489;DHT22;8861;52.644;4.734;2023-02-13T13:49:36;12.80;99.90
17489;DHT22;8861;52.644;4.734;2023-02-13T13:52:18;12.80;99.90
17489;DHT22;8861;52.644;4.734;2023-02-13T13:54:46;12.80;99.90
17489;DHT22;8861;52.644;4.734;2023-02-13T13:57:18;12.90;99.90
17489;DHT22;8861;52.644;4.734;2023-02-13T14:00:23;12.90;99.90
17489;DHT22;8861;52.644;4.734;2023-02-13T14:05:33;12.70;99.90
17489;DHT22;8861;52.644;4.734;2023-02-13T14:08:54;12.70;99.90
17489;DHT22;8861;52.644;4.734;2023-02-13T14:11:30;12.50;99.90
17489;DHT22;8861;52.644;4.734;2023-02-13T14:17:01;12.20;99.90
17489;DHT22;8861;52.644;4.734;2023-02-13T14:20:15;12.00;99.90
17489;DHT22;8861;52.644;4.734;2023-02-13T14:22:45;12.00;99.90
17489;DHT22;8861;52.644;4.734;2023-02-13T14:25:21;12.00;99.90
17489;DHT22;8861;52.644;4.734;2023-02-13T14:27:56;12.10;99.90
17489;DHT22;8861;52.644;4.734;2023-02-13T14:30:27;12.30;99.90
17489;DHT22;8861;52.644;4.734;2023-02-13T14:32:56;12.40;99.90
17489;DHT22;8861;52.644;4.734;2023-02-13T14:35:27;12.40;99.90
17489;DHT22;8861;52.644;4.734;2023-02-13T14:37:57;12.40;99.90
17489;DHT22;8861;52.644;4.734;2023-02-13T14:43:34;12.20;99.90
17489;DHT22;8861;52.644;4.734;2023-02-13T14:46:08;12.00;99.90
17489;DHT22;8861;52.644;4.734;2023-02-13T14:48:43;11.80;99.90
17489;DHT22;8861;52.644;4.734;2023-02-13T14:51:19;11.70;99.90
17489;DHT22;8861;52.644;4.734;2023-02-13T14:53:57;11.60;99.90
17489;DHT22;8861;52.644;4.734;2023-02-13T14:56:24;11.50;99.90
17489;DHT22;8861;52.644;4.734;2023-02-13T14:58:55;11.40;99.90
17489;DHT22;8861;52.644;4.734;2023-02-13T15:01:29;11.40;99.90
17489;DHT22;8861;52.644;4.734;2023-02-13T15:04:05;11.30;99.90
17489;DHT22;8861;52.644;4.734;2023-02-13T15:06:35;11.20;99.90
17489;DHT22;8861;52.644;4.734;2023-02-13T15:09:14;11.20;99.90
17489;DHT22;8861;52.644;4.734;2023-02-13T15:11:43;11.10;99.90
17489;DHT22;8861;52.644;4.734;2023-02-13T15:14:21;11.10;99.90
17489;DHT22;8861;52.644;4.734;2023-02-13T15:16:53;11.00;99.90
17489;DHT22;8861;52.644;4.734;2023-02-13T15:19:23;11.10;99.90
17489;DHT22;8861;52.644;4.734;2023-02-13T15:21:53;11.00;99.90
17489;DHT22;8861;52.644;4.734;2023-02-13T15:24:21;11.00;99.90
17489;DHT22;8861;52.644;4.734;2023-02-13T15:26:58;10.90;99.90
17489;DHT22;8861;52.644;4.734;2023-02-13T15:29:26;10.90;99.90
17489;DHT22;8861;52.644;4.734;2023-02-13T15:31:53;10.90;99.90
17489;DHT22;8861;52.644;4.734;2023-02-13T15:34:25;10.90;99.90
17489;DHT22;8861;52.644;4.734;2023-02-13T15:36:53;10.70;99.90
17489;DHT22;8861;52.644;4.734;2023-02-13T15:39:24;10.70;99.90
17489;DHT22;8861;52.644;4.734;2023-02-13T15:41:53;10.60;99.90
17489;DHT22;8861;52.644;4.734;2023-02-13T15:44:24;10.60;99.90
17489;DHT22;8861;52.644;4.734;2023-02-13T15:46:53;10.50;99.90
17489;DHT22;8861;52.644;4.734;2023-02-13T15:49:24;10.50;99.90
17489;DHT22;8861;52.644;4.734;2023-02-13T15:52:01;10.40;99.90
17489;DHT22;8861;52.644;4.734;2023-02-13T15:54:30;10.40;99.90
17489;DHT22;8861;52.644;4.734;2023-02-13T15:57:00;10.30;99.90
17489;DHT22;8861;52.644;4.734;2023-02-13T15:59:30;10.30;99.90
17489;DHT22;8861;52.644;4.734;2023-02-13T16:01:59;10.20;99.90
17489;DHT22;8861;52.644;4.734;2023-02-13T16:04:28;10.10;99.90
17489;DHT22;8861;52.644;4.734;2023-02-13T16:06:56;10.00;99.90
17489;DHT22;8861;52.644;4.734;2023-02-13T16:09:30;10.00;99.90
17489;DHT22;8861;52.644;4.734;2023-02-13T16:12:03;9.90;99.90
17489;DHT22;8861;52.644;4.734;2023-02-13T16:14:32;9.80;99.90
17489;DHT22;8861;52.644;4.734;2023-02-13T16:17:01;9.80;99.90
17489;DHT22;8861;52.644;4.734;2023-02-13T16:19:36;9.70;99.90
17489;DHT22;8861;52.644;4.734;2023-02-13T16:22:24;9.60;99.90
17489;DHT22;8861;52.644;4.734;2023-02-13T16:24:53;9.50;99.90
17489;DHT22;8861;52.644;4.734;2023-02-13T16:27:25;9.40;99.90
17489;DHT22;8861;52.644;4.734;2023-02-13T16:29:55;9.30;99.90
17489;DHT22;8861;52.644;4.734;2023-02-13T16:32:27;9.30;99.90
17489;DHT22;8861;52.644;4.734;2023-02-13T16:34:59;9.20;99.90
17489;DHT22;8861;52.644;4.734;2023-02-13T16:37:49;9.10;99.90
17489;DHT22;8861;52.644;4.734;2023-02-13T16:43:31;8.90;99.90
17489;DHT22;8861;52.644;4.734;2023-02-13T16:46:19;8.80;99.90
17489;DHT22;8861;52.644;4.734;2023-02-13T16:48:59;8.70;99.90